Abadi — V8V2002 — position and weather

sailwx.info

Track history (hours):
 
Tides and Currents Weather Stations Pressure Air Temp Water Temp Dewpoint Dewpoint Depression Visibility Wind Speed Wind Dir Waves Ship Positions

Abadi

Last reported at 2015-May-17 17:12 UTC. Time now 2015-May-22 23:41 UTC.
Position N 31°25' E 133°57'.

Type: Ship (hazmat cat A). MMSI: 508011000.

Date/timePositionNaut miles runAvg speedWind from/ knotsBaromVisibWave heightAir tempDewpointWater temp
2015-May-17 17:12N 31°25' E 133°57'1117.2
2015-May-17 16:33N 31°32' E 134°07'14416.0
2015-May-17 07:33N 33°50' E 134°55'1211.6
2015-May-17 06:30N 34°02' E 134°56'1112.0
2015-May-17 05:33N 34°14' E 134°58'1414.1
2015-May-17 04:33N 34°26' E 135°07'1413.8
2015-May-17 03:33N 34°33' E 135°21'3 2.4
2015-May-17 02:18N 34°33' E 135°24'0 0.0
2015-May-17 01:29N 34°33' E 135°24'0 0.0
2015-May-17 00:16N 34°33' E 135°24'0 0.0
2015-May-16 23:28N 34°33' E 135°24'0 0.0
2015-May-16 22:33N 34°33' E 135°24'0 0.0
2015-May-16 21:33N 34°33' E 135°24'0 0.0
2015-May-16 20:20N 34°33' E 135°24'0 0.0
2015-May-16 19:32N 34°33' E 135°24'0 0.0
2015-May-16 18:32N 34°33' E 135°24'0 0.0
2015-May-16 17:31N 34°33' E 135°24'0 0.0
2015-May-16 16:31N 34°33' E 135°24'0 0.0
2015-May-16 15:24N 34°33' E 135°24'0 0.0
2015-May-16 14:30N 34°33' E 135°24'0 0.0
2015-May-16 13:17N 34°33' E 135°24'0 0.0
2015-May-16 12:29N 34°33' E 135°24'0 0.0
2015-May-16 11:29N 34°33' E 135°24'0 0.0
2015-May-16 10:16N 34°33' E 135°24'0 0.0
2015-May-16 09:22N 34°33' E 135°24'0 0.0
2015-May-16 08:33N 34°33' E 135°24'0 0.0
2015-May-16 07:27N 34°33' E 135°24'0 0.0
2015-May-16 05:31N 34°33' E 135°24'0 0.0
2015-May-16 04:25N 34°33' E 135°24'0 0.1
2015-May-16 03:33N 34°33' E 135°24'2 2.5
2015-May-16 02:33N 34°33' E 135°21'1212.2
2015-May-16 01:33N 34°26' E 135°09'1313.0
2015-May-16 00:33N 34°16' E 134°59'9 9.2
2015-May-15 23:33N 34°07' E 134°60'8 7.6
2015-May-15 22:33N 33°59' E 134°60'  
Track history (hours):
 
Tides and Currents Weather Stations Pressure Air Temp Water Temp Dewpoint Dewpoint Depression Visibility Wind Speed Wind Dir Waves Ship Positions

Abadi

Last reported at 2015-May-17 17:12 UTC. Time now 2015-May-22 23:41 UTC.
Position N 31°25' E 133°57'.

Type: Ship (hazmat cat A). MMSI: 508011000.

Date/timePositionNaut miles runAvg speedWind from/ knotsBaromVisibWave heightAir tempDewpointWater temp
2015-May-17 17:12N 31°25' E 133°57'1117.2
2015-May-17 16:33N 31°32' E 134°07'14416.0
2015-May-17 07:33N 33°50' E 134°55'1211.6
2015-May-17 06:30N 34°02' E 134°56'1112.0
2015-May-17 05:33N 34°14' E 134°58'1414.1
2015-May-17 04:33N 34°26' E 135°07'1413.8
2015-May-17 03:33N 34°33' E 135°21'3 2.4
2015-May-17 02:18N 34°33' E 135°24'0 0.0
2015-May-17 01:29N 34°33' E 135°24'0 0.0
2015-May-17 00:16N 34°33' E 135°24'0 0.0
2015-May-16 23:28N 34°33' E 135°24'0 0.0
2015-May-16 22:33N 34°33' E 135°24'0 0.0
2015-May-16 21:33N 34°33' E 135°24'0 0.0
2015-May-16 20:20N 34°33' E 135°24'0 0.0
2015-May-16 19:32N 34°33' E 135°24'0 0.0
2015-May-16 18:32N 34°33' E 135°24'0 0.0
2015-May-16 17:31N 34°33' E 135°24'0 0.0
2015-May-16 16:31N 34°33' E 135°24'0 0.0
2015-May-16 15:24N 34°33' E 135°24'0 0.0
2015-May-16 14:30N 34°33' E 135°24'0 0.0
2015-May-16 13:17N 34°33' E 135°24'0 0.0
2015-May-16 12:29N 34°33' E 135°24'0 0.0
2015-May-16 11:29N 34°33' E 135°24'0 0.0
2015-May-16 10:16N 34°33' E 135°24'0 0.0
2015-May-16 09:22N 34°33' E 135°24'0 0.0
2015-May-16 08:33N 34°33' E 135°24'0 0.0
2015-May-16 07:27N 34°33' E 135°24'0 0.0
2015-May-16 05:31N 34°33' E 135°24'0 0.0
2015-May-16 04:25N 34°33' E 135°24'0 0.1
2015-May-16 03:33N 34°33' E 135°24'2 2.5
2015-May-16 02:33N 34°33' E 135°21'1212.2
2015-May-16 01:33N 34°26' E 135°09'1313.0
2015-May-16 00:33N 34°16' E 134°59'9 9.2
2015-May-15 23:33N 34°07' E 134°60'8 7.6
2015-May-15 22:33N 33°59' E 134°60'  

Dump ship's entire track history